Time;durP1;ratioP1;P1;durP2;ratioP2;P2;SDS_P1;SDS_P2;PMS_P1;PMS_P2;Temp;Humidity;BMP_temperature;BMP_pressure;BME280_temperature;BME280_humidity;BME280_pressure;Samples;Min_cycle;Max_cycle;Signal;HPM_P1;HPM_P2
2021/10/04 00:00:20;;;;;;;0.65;0.40;;;;;;;;;;5074051;28;20028;-91
2021/10/04 00:02:46;;;;;;;0.30;0.30;;;;;;;;;;5086802;28;20022;-91
2021/10/04 00:05:12;;;;;;;0.43;0.43;;;;;;;;;;5083163;28;20032;-91
2021/10/04 00:07:39;;;;;;;0.30;0.30;;;;;;;;;;5087029;28;20033;-91
2021/10/04 00:10:17;;;;;;;0.30;0.30;;;14.30;74.40;;;;;;5088154;28;20025;-93
2021/10/04 00:12:43;;;;;;;0.75;0.50;;;;;;;;;;5071528;28;20490;-90
2021/10/04 00:15:11;;;;;;;1.00;0.57;;;14.20;75.40;;;;;;5085305;28;20024;-91
2021/10/04 00:17:38;;;;;;;0.35;0.35;;;;;;;;;;5080463;28;20254;-91
2021/10/04 00:20:09;;;;;;;0.52;0.52;;;14.40;74.30;;;;;;5075856;28;20024;-91
2021/10/04 00:22:35;;;;;;;2.95;0.52;;;;;;;;;;5072911;28;20056;-90
2021/10/04 00:25:02;;;;;;;0.40;0.30;;;;;;;;;;5071511;28;20017;-92
2021/10/04 00:27:28;;;;;;;0.57;0.40;;;;;;;;;;5071936;28;20036;-90
2021/10/04 00:29:54;;;;;;;0.20;0.20;;;;;;;;;;5078548;28;20499;-91
2021/10/04 00:32:20;;;;;;;0.35;0.32;;;;;;;;;;5082078;28;20033;-91
2021/10/04 00:34:46;;;;;;;0.55;0.30;;;;;;;;;;5079693;28;20024;-90
2021/10/04 00:37:11;;;;;;;0.30;0.30;;;;;;;;;;5078940;28;20068;-90
2021/10/04 00:39:37;;;;;;;0.30;0.30;;;;;;;;;;5075531;28;20059;-92
2021/10/04 00:42:04;;;;;;;0.30;0.30;;;;;;;;;;5075508;28;20088;-90
2021/10/04 00:44:30;;;;;;;0.65;0.47;;;;;;;;;;5078158;28;20025;-91
2021/10/04 00:46:57;;;;;;;0.95;0.68;;;;;;;;;;5089406;28;20028;-91
2021/10/04 00:49:23;;;;;;;0.75;0.30;;;;;;;;;;5075327;28;20029;-89
2021/10/04 00:51:49;;;;;;;0.40;0.40;;;;;;;;;;5094715;28;20032;-91
2021/10/04 00:54:15;;;;;;;0.75;0.50;;;;;;;;;;5080982;28;20107;-91
2021/10/04 00:56:41;;;;;;;0.20;0.20;;;;;;;;;;5074342;28;20095;-92
2021/10/04 00:59:07;;;;;;;17.27;1.60;;;;;;;;;;5075469;28;20032;-91
2021/10/04 01:01:34;;;;;;;0.30;0.30;;;;;;;;;;5075426;28;20061;-91
2021/10/04 01:04:00;;;;;;;0.32;0.32;;;14.70;73.10;;;;;;5074243;28;20029;-91
2021/10/04 01:06:30;;;;;;;2.70;0.52;;;;;;;;;;5108165;28;20036;-91
2021/10/04 01:08:56;;;;;;;0.93;0.47;;;;;;;;;;5084776;28;20073;-91
2021/10/04 01:11:22;;;;;;;0.30;0.30;;;;;;;;;;5095004;28;20019;-91
2021/10/04 01:13:48;;;;;;;0.85;0.45;;;;;;;;;;5088586;28;20036;-91
2021/10/04 01:16:15;;;;;;;0.47;0.30;;;14.40;72.30;;;;;;5074064;28;20025;-92
2021/10/04 01:18:42;;;;;;;0.30;0.30;;;14.50;72.60;;;;;;5073777;28;20147;-92
2021/10/04 01:21:08;;;;;;;0.30;0.30;;;;;;;;;;5090491;28;20377;-91
2021/10/04 01:23:34;;;;;;;3.95;0.50;;;;;;;;;;5089288;28;20036;-92
2021/10/04 01:26:00;;;;;;;0.40;0.40;;;;;;;;;;5081344;28;20075;-93
2021/10/04 01:28:28;;;;;;;0.30;0.30;;;14.40;72.70;;;;;;5095384;28;20038;-91
2021/10/04 01:30:54;;;;;;;0.30;0.30;;;;;;;;;;5093988;28;20091;-91
2021/10/04 01:33:22;;;;;;;0.85;0.43;;;;;;;;;;5090362;28;20032;-92
2021/10/04 01:35:48;;;;;;;0.45;0.45;;;;;;;;;;5098514;28;20024;-90
2021/10/04 01:38:14;;;;;;;0.30;0.30;;;;;;;;;;5086146;28;20048;-91
2021/10/04 01:40:43;;;;;;;0.43;0.43;;;;;;;;;;5089909;28;20428;-92
2021/10/04 01:43:09;;;;;;;0.30;0.30;;;;;;;;;;5094408;28;20063;-91
2021/10/04 01:45:35;;;;;;;0.70;0.50;;;;;;;;;;5077108;28;20013;-91
2021/10/04 01:48:01;;;;;;;0.30;0.30;;;;;;;;;;5088963;28;20039;-91
2021/10/04 01:50:32;;;;;;;0.90;0.90;;;;;;;;;;5092849;28;20043;-92
2021/10/04 01:52:58;;;;;;;0.28;0.28;;;;;;;;;;5090517;28;20495;-91
2021/10/04 01:55:24;;;;;;;0.40;0.40;;;14.40;72.40;;;;;;5090427;28;20051;-91
2021/10/04 01:57:50;;;;;;;0.25;0.25;;;;;;;;;;5073552;28;20121;-92
2021/10/04 02:00:19;;;;;;;0.45;0.45;;;14.40;74.70;;;;;;5081285;28;20021;-92
2021/10/04 02:02:48;;;;;;;0.30;0.30;;;14.60;73.60;;;;;;5081199;28;20032;-91
2021/10/04 02:05:15;;;;;;;0.30;0.30;;;14.70;72.00;;;;;;5078272;28;20065;-91
2021/10/04 02:07:41;;;;;;;0.30;0.30;;;;;;;;;;5073900;28;20024;-92
2021/10/04 02:10:10;;;;;;;0.28;0.28;;;14.40;72.50;;;;;;5076428;28;20115;-91
2021/10/04 02:12:36;;;;;;;0.57;0.40;;;;;;;;;;5080326;28;20024;-91
2021/10/04 02:15:03;;;;;;;0.30;0.30;;;14.40;72.50;;;;;;5082655;28;20178;-92
2021/10/04 02:17:31;;;;;;;1.08;0.40;;;;;;;;;;5086717;28;20043;-91
2021/10/04 02:19:57;;;;;;;0.45;0.40;;;;;;;;;;5074057;28;20123;-90
2021/10/04 02:22:23;;;;;;;0.98;0.50;;;;;;;;;;5077004;28;20030;-92
2021/10/04 02:24:49;;;;;;;0.95;0.47;;;;;;;;;;5093597;28;20537;-91
2021/10/04 02:27:15;;;;;;;0.40;0.40;;;;;;;;;;5092478;28;20031;-90
2021/10/04 02:29:41;;;;;;;1.08;0.43;;;;;;;;;;5084795;28;20028;-91
2021/10/04 02:32:08;;;;;;;0.90;0.52;;;;;;;;;;5088534;28;20028;-92
2021/10/04 02:34:34;;;;;;;0.28;0.28;;;;;;;;;;5072216;28;20025;-91
2021/10/04 02:37:00;;;;;;;0.40;0.40;;;;;;;;;;5089464;28;20044;-91
2021/10/04 02:39:26;;;;;;;0.40;0.40;;;;;;;;;;5077938;28;20028;-90
2021/10/04 02:41:52;;;;;;;0.50;0.30;;;;;;;;;;5092674;28;20020;-91
2021/10/04 02:44:18;;;;;;;0.73;0.40;;;;;;;;;;5082513;28;20032;-90
2021/10/04 02:46:44;;;;;;;0.40;0.40;;;;;;;;;;5075261;28;20017;-92
2021/10/04 02:49:10;;;;;;;0.73;0.40;;;;;;;;;;5090055;28;20055;-91
2021/10/04 02:51:36;;;;;;;3.08;0.47;;;;;;;;;;5080909;28;20168;-91
2021/10/04 02:54:02;;;;;;;0.30;0.30;;;;;;;;;;5089301;28;20374;-92
2021/10/04 02:56:28;;;;;;;0.45;0.40;;;;;;;;;;5092327;28;20122;-91
2021/10/04 02:58:55;;;;;;;0.30;0.30;;;;;;;;;;5094317;28;20568;-91
2021/10/04 03:01:21;;;;;;;0.30;0.30;;;;;;;;;;5092264;28;20385;-91
2021/10/04 03:03:47;;;;;;;0.65;0.55;;;;;;;;;;5092405;28;20024;-91
2021/10/04 03:06:13;;;;;;;0.30;0.30;;;;;;;;;;5074951;28;20031;-91
2021/10/04 03:08:39;;;;;;;0.40;0.40;;;;;;;;;;5072536;28;20078;-92
2021/10/04 03:11:05;;;;;;;0.55;0.43;;;;;;;;;;5075125;28;20032;-92
2021/10/04 03:13:31;;;;;;;2.25;1.58;;;;;;;;;;5072702;28;20028;-92
2021/10/04 03:15:57;;;;;;;0.50;0.50;;;;;;;;;;5071868;28;20017;-90
2021/10/04 03:18:23;;;;;;;0.60;0.60;;;;;;;;;;5072274;28;20063;-91
2021/10/04 03:20:49;;;;;;;0.73;0.60;;;;;;;;;;5084719;28;20564;-91
2021/10/04 03:23:15;;;;;;;0.57;0.57;;;;;;;;;;5092919;28;20043;-90
2021/10/04 03:25:41;;;;;;;0.30;0.30;;;;;;;;;;5090640;28;20507;-92
2021/10/04 03:28:07;;;;;;;0.30;0.30;;;;;;;;;;5092606;28;20034;-91
2021/10/04 03:30:34;;;;;;;0.30;0.30;;;;;;;;;;5083640;28;20044;-91
2021/10/04 03:33:01;;;;;;;2.47;0.52;;;14.00;74.40;;;;;;5088529;28;20135;-91
2021/10/04 03:35:27;;;;;;;;;;;13.80;73.70;;;;;;5074193;28;20017;-90
2021/10/04 03:37:53;;;;;;;1.05;0.90;;;;;;;;;;5076549;28;19923;-92
2021/10/04 03:40:19;;;;;;;1.70;0.82;;;;;;;;;;5091489;28;20023;-90
2021/10/04 03:42:45;;;;;;;2.05;1.20;;;14.00;74.90;;;;;;5071505;28;20472;-91
2021/10/04 03:45:12;;;;;;;1.45;1.23;;;14.00;74.50;;;;;;5072962;28;20127;-92
2021/10/04 03:47:38;;;;;;;1.80;0.98;;;;;;;;;;5081842;28;20031;-90
2021/10/04 03:50:08;;;;;;;3.50;0.80;;;14.10;74.10;;;;;;5084606;28;20078;-90
2021/10/04 03:52:35;;;;;;;1.10;0.70;;;14.00;74.40;;;;;;5072174;28;20032;-92
2021/10/04 03:55:01;;;;;;;1.83;0.80;;;;;;;;;;5072612;28;20044;-91
2021/10/04 03:57:27;;;;;;;1.38;0.63;;;;;;;;;;5071763;28;20036;-92
2021/10/04 03:59:53;;;;;;;0.70;0.60;;;;;;;;;;5081760;28;20055;-91
2021/10/04 04:02:19;;;;;;;2.65;0.98;;;;;;;;;;5083050;28;20097;-90
2021/10/04 04:04:45;;;;;;;2.30;0.90;;;;;;;;;;5074618;28;20109;-91
2021/10/04 04:07:11;;;;;;;1.42;0.80;;;;;;;;;;5093884;28;20468;-91
2021/10/04 04:09:37;;;;;;;1.63;1.27;;;;;;;;;;5096619;28;20119;-92
2021/10/04 04:12:03;;;;;;;0.95;0.80;;;13.90;90.90;;;;;;5096133;28;20030;-91
2021/10/04 04:14:29;;;;;;;0.82;0.70;;;;;;;;;;5095103;28;20407;-91
2021/10/04 04:16:55;;;;;;;1.13;0.80;;;;;;;;;;5089625;28;20035;-91
2021/10/04 04:19:21;;;;;;;3.80;0.80;;;;;;;;;;5092903;28;20020;-93
2021/10/04 04:21:47;;;;;;;1.48;0.70;;;;;;;;;;5093116;28;20024;-92
2021/10/04 04:24:17;;;;;;;1.42;0.80;;;;;;;;;;5094571;28;20074;-91
2021/10/04 04:26:43;;;;;;;0.55;0.55;;;;;;;;;;5095118;28;20032;-91
2021/10/04 04:29:09;;;;;;;1.05;1.00;;;;;;;;;;5091623;28;20031;-90
2021/10/04 04:31:35;;;;;;;1.30;0.82;;;;;;;;;;5083220;28;20028;-91
2021/10/04 04:34:01;;;;;;;3.90;1.85;;;;;;;;;;5074667;28;20040;-90
2021/10/04 04:36:28;;;;;;;2.90;1.08;;;;;;;;;;5090538;28;20082;-90
2021/10/04 04:38:54;;;;;;;1.55;1.15;;;;;;;;;;5090404;28;20541;-93
2021/10/04 04:41:20;;;;;;;1.38;1.15;;;;;;;;;;5084121;28;20166;-91
2021/10/04 04:43:46;;;;;;;1.40;0.93;;;;;;;;;;5079741;28;20031;-90
2021/10/04 04:46:12;;;;;;;2.13;1.10;;;;;;;;;;5093640;28;20044;-91
2021/10/04 04:48:38;;;;;;;3.42;1.25;;;;;;;;;;5090854;28;20497;-91
2021/10/04 04:51:04;;;;;;;2.78;1.50;;;;;;;;;;5095786;28;20473;-91
2021/10/04 04:53:30;;;;;;;3.15;1.08;;;;;;;;;;5086023;28;20029;-91
2021/10/04 04:55:56;;;;;;;2.63;0.88;;;;;;;;;;5074118;28;20461;-92
2021/10/04 04:58:22;;;;;;;2.13;1.10;;;;;;;;;;5076335;28;20033;-90
2021/10/04 05:00:48;;;;;;;1.83;0.82;;;;;;;;;;5094470;28;20096;-92
2021/10/04 05:03:14;;;;;;;2.38;1.40;;;;;;;;;;5095562;28;20075;-91
2021/10/04 05:05:40;;;;;;;1.83;1.33;;;;;;;;;;5108096;28;20408;-90
2021/10/04 05:08:06;;;;;;;2.22;1.38;;;;;;;;;;5099466;28;20056;-90
2021/10/04 05:10:32;;;;;;;1.52;1.10;;;;;;;;;;5076485;28;20086;-93
2021/10/04 05:12:58;;;;;;;2.90;1.00;;;;;;;;;;5092821;28;20520;-91
2021/10/04 05:15:24;;;;;;;1.38;0.90;;;;;;;;;;5091649;28;20055;-91
2021/10/04 05:17:50;;;;;;;2.85;1.20;;;;;;;;;;5089453;28;20028;-89
2021/10/04 05:20:16;;;;;;;4.18;1.35;;;;;;;;;;5092317;28;20024;-90
2021/10/04 05:22:43;;;;;;;1.40;0.85;;;;;;;;;;5091490;28;20024;-91
2021/10/04 05:25:09;;;;;;;2.50;1.52;;;13.90;74.10;;;;;;5088950;28;20023;-91
2021/10/04 05:27:36;;;;;;;2.28;0.95;;;13.90;73.70;;;;;;5089475;28;20020;-92
2021/10/04 05:30:02;;;;;;;1.50;1.08;;;;;;;;;;5092496;28;20028;-92
2021/10/04 05:32:28;;;;;;;2.03;1.30;;;;;;;;;;5087296;28;20078;-92
2021/10/04 05:34:54;;;;;;;1.33;1.13;;;;;;;;;;5091908;28;20024;-91
2021/10/04 05:37:20;;;;;;;1.48;0.93;;;;;;;;;;5093810;28;20469;-92
2021/10/04 05:39:46;;;;;;;1.58;1.40;;;;;;;;;;5092836;28;20016;-92
2021/10/04 05:42:12;;;;;;;1.33;0.85;;;;;;;;;;5087770;28;20047;-92
2021/10/04 05:47:39;;;;;;;1.10;1.10;;;;;;;;;;5499586;22;20060;-96
2021/10/04 05:50:06;;;;;;;2.05;1.42;;;;;;;;;;5058616;28;20037;-93
2021/10/04 05:52:32;;;;;;;1.63;0.98;;;;;;;;;;5062250;28;20021;-95
2021/10/04 05:54:58;;;;;;;1.58;0.60;;;;;;;;;;5071697;28;20033;-95
2021/10/04 05:57:24;;;;;;;0.65;0.65;;;;;;;;;;5051728;28;20037;-95
2021/10/04 05:59:50;;;;;;;0.68;0.68;;;;;;;;;;5047036;28;20029;-94
2021/10/04 06:02:16;;;;;;;0.50;0.50;;;;;;;;;;5045265;28;20048;-94
2021/10/04 06:04:42;;;;;;;0.88;0.50;;;;;;;;;;5018231;28;20068;-93
2021/10/04 06:07:08;;;;;;;0.68;0.50;;;;;;;;;;5037299;28;20372;-94
2021/10/04 06:09:34;;;;;;;0.93;0.85;;;;;;;;;;5023829;28;20030;-95
2021/10/04 06:12:00;;;;;;;0.30;0.30;;;;;;;;;;5041699;28;20082;-95
2021/10/04 06:14:26;;;;;;;0.50;0.40;;;;;;;;;;5041836;28;20759;-94
2021/10/04 06:16:55;;;;;;;1.05;0.60;;;;;;;;;;5030089;28;20786;-95
2021/10/04 06:19:21;;;;;;;0.50;0.50;;;;;;;;;;5032850;28;20030;-94
2021/10/04 06:21:47;;;;;;;1.90;0.65;;;;;;;;;;5033480;28;20482;-95
2021/10/04 06:24:14;;;;;;;0.70;0.60;;;;;;;;;;5051088;28;20021;-94
2021/10/04 06:26:40;;;;;;;3.63;0.80;;;;;;;;;;5052705;28;20032;-94
2021/10/04 06:29:06;;;;;;;0.40;0.40;;;;;;;;;;5053353;28;20021;-93
2021/10/04 06:31:32;;;;;;;0.70;0.70;;;;;;;;;;5037131;28;20107;-90
2021/10/04 06:33:58;;;;;;;0.40;0.40;;;;;;;;;;5054749;28;20845;-96
2021/10/04 06:36:24;;;;;;;1.05;0.63;;;;;;;;;;5035288;28;20379;-89
2021/10/04 06:38:51;;;;;;;0.85;0.80;;;;;;;;;;5034459;28;20163;-91
2021/10/04 06:41:17;;;;;;;1.30;1.00;;;;;;;;;;5021729;28;20500;-93
2021/10/04 06:43:43;;;;;;;1.73;1.63;;;;;;;;;;5047586;28;20033;-94
2021/10/04 06:46:09;;;;;;;1.45;1.02;;;;;;;;;;5050859;28;20027;-95
2021/10/04 06:48:36;;;;;;;2.35;1.20;;;14.20;72.10;;;;;;5052347;28;20042;-95
2021/10/04 06:53:30;;;;;;;4.20;0.80;;;;;;;;;;5082746;28;20090;-94
2021/10/04 06:55:56;;;;;;;1.45;1.35;;;;;;;;;;5085823;28;20093;-94
2021/10/04 06:58:22;;;;;;;3.00;0.90;;;;;;;;;;5079668;28;20036;-95
2021/10/04 07:00:49;;;;;;;1.58;0.70;;;;;;;;;;5076414;28;20056;-95
2021/10/04 07:03:15;;;;;;;1.50;0.98;;;;;;;;;;5081331;28;20373;-94
2021/10/04 07:05:45;;;;;;;0.63;0.63;;;;;;;;;;5068566;28;20017;-94
2021/10/04 07:08:11;;;;;;;1.23;0.75;;;;;;;;;;5065210;28;20485;-93
2021/10/04 07:10:37;;;;;;;1.60;1.10;;;;;;;;;;5079478;28;20027;-94
2021/10/04 07:13:03;;;;;;;1.10;1.00;;;;;;;;;;5060874;28;20028;-95
2021/10/04 07:15:29;;;;;;;0.90;0.90;;;;;;;;;;5061484;28;20036;-94
2021/10/04 07:17:55;;;;;;;0.68;0.68;;;;;;;;;;5068372;28;20044;-94
2021/10/04 07:20:21;;;;;;;1.65;0.90;;;;;;;;;;5066940;28;20032;-94
2021/10/04 07:22:47;;;;;;;1.17;0.88;;;;;;;;;;5083066;28;20036;-94
2021/10/04 07:25:13;;;;;;;0.63;0.63;;;;;;;;;;5079123;28;20573;-94
2021/10/04 07:27:39;;;;;;;2.95;0.60;;;;;;;;;;5071076;28;20532;-93
2021/10/04 07:30:06;;;;;;;1.17;0.77;;;;;;;;;;5082841;28;20020;-94
2021/10/04 07:32:32;;;;;;;3.25;1.63;;;;;;;;;;5081780;28;20063;-94
2021/10/04 07:34:59;;;;;;;2.72;0.85;;;;;;;;;;5064598;28;20028;-93
2021/10/04 07:37:25;;;;;;;1.15;0.85;;;;;;;;;;5055867;28;20045;-95
2021/10/04 07:45:09;;;;;;;2.90;1.00;;;;;;;;;;5088192;28;20044;-94
2021/10/04 07:47:35;;;;;;;0.83;0.83;;;;;;;;;;5085978;28;20062;-93
2021/10/04 07:50:01;;;;;;;1.58;1.48;;;;;;;;;;5084748;28;20500;-94
2021/10/04 07:52:27;;;;;;;0.70;0.65;;;;;;;;;;5086779;28;20035;-93
2021/10/04 07:54:53;;;;;;;0.90;0.90;;;;;;;;;;5089680;28;20032;-95
2021/10/04 07:57:19;;;;;;;4.05;0.73;;;;;;;;;;5079380;28;20078;-92
2021/10/04 07:59:45;;;;;;;0.68;0.50;;;;;;;;;;5076538;28;20071;-94
2021/10/04 08:02:11;;;;;;;1.33;0.70;;;14.90;73.80;;;;;;5080837;28;20024;-93
2021/10/04 08:04:37;;;;;;;0.82;0.60;;;;;;;;;;5070487;28;20028;-95
2021/10/04 08:07:05;;;;;;;0.40;0.40;;;15.10;72.90;;;;;;5076607;28;20028;-93
2021/10/04 08:09:31;;;;;;;1.35;0.60;;;;;;;;;;5077798;28;20070;-94
2021/10/04 08:11:58;;;;;;;0.50;0.47;;;;;;;;;;5078420;28;20157;-93
2021/10/04 08:14:24;;;;;;;0.40;0.40;;;;;;;;;;5084610;28;20111;-95
2021/10/04 08:16:50;;;;;;;0.50;0.50;;;;;;;;;;5085791;28;20619;-93
2021/10/04 08:19:16;;;;;;;0.93;0.63;;;;;;;;;;5048781;28;20035;-93
2021/10/04 08:21:52;;;;;;;1.30;0.75;;;;;;;;;;5199509;22;20052;-96
2021/10/04 08:24:18;;;;;;;0.63;0.63;;;;;;;;;;5103202;28;20058;-96
2021/10/04 08:26:44;;;;;;;0.60;0.55;;;;;;;;;;5106171;22;20079;-96
2021/10/04 08:32:07;;;;;;;0.95;0.60;;;;;;;;;;5710864;22;20121;-95
2021/10/04 08:34:36;;;;;;;1.67;0.60;;;;;;;;;;5119040;23;20045;-95
2021/10/04 08:37:06;;;;;;;1.60;0.50;;;;;;;;;;5129223;22;20056;-95
2021/10/04 08:39:47;;;;;;;0.60;0.60;;;;;;;;;;5551441;22;20064;-96
2021/10/04 08:42:14;;;;;;;7.53;2.28;;;;;;;;;;5064385;28;20025;-95
2021/10/04 08:44:41;;;;;;;0.63;0.47;;;15.00;71.60;;;;;;5062417;28;20035;-95
2021/10/04 09:04:31;;;;;;;0.70;0.50;;;15.20;71.60;;;;;;5009966;22;21564;-93
2021/10/04 09:07:01;;;;;;;0.77;0.60;;;15.20;72.20;;;;;;5011598;28;20050;-92
2021/10/04 09:09:27;;;;;;;0.93;0.65;;;;;;;;;;4986419;28;20113;-93
2021/10/04 09:11:53;;;;;;;0.60;0.47;;;;;;;;;;5010292;28;20081;-93
2021/10/04 09:14:28;;;;;;;1.92;0.52;;;;;;;;;;5017085;28;20108;-95
2021/10/04 09:17:03;;;;;;;0.63;0.50;;;15.20;71.40;;;;;;5030700;28;20066;-96
2021/10/04 09:24:54;;;;;;;0.70;0.63;;;;;;;;;;5279235;22;20051;-93
2021/10/04 09:27:23;;;;;;;0.40;0.40;;;;;;;;;;5030267;28;20025;-94
2021/10/04 09:29:49;;;;;;;1.23;0.75;;;;;;;;;;5047445;28;20048;-94
2021/10/04 09:32:23;;;;;;;0.45;0.45;;;;;;;;;;5042982;28;20021;-95
2021/10/04 09:34:49;;;;;;;0.52;0.50;;;;;;;;;;5061886;28;20047;-95
2021/10/04 09:37:24;;;;;;;1.40;1.30;;;;;;;;;;5060769;28;20505;-96
2021/10/04 09:39:51;;;;;;;0.55;0.50;;;;;;;;;;5050744;28;20391;-95
2021/10/04 09:42:18;;;;;;;2.65;0.60;;;15.40;70.40;;;;;;5018320;28;20041;-94
2021/10/04 09:44:50;;;;;;;0.75;0.75;;;;;;;;;;5045605;28;20017;-94
2021/10/04 09:47:16;;;;;;;1.27;0.60;;;;;;;;;;5046531;28;20036;-95
2021/10/04 09:49:46;;;;;;;2.30;0.68;;;;;;;;;;5045136;28;20405;-96
2021/10/04 09:52:12;;;;;;;0.82;0.50;;;;;;;;;;5038921;28;20028;-96
2021/10/04 09:59:49;;;;;;;5.47;0.40;;;;;;;;;;5274718;23;20052;-96
2021/10/04 10:02:17;;;;;;;0.50;0.50;;;15.60;71.60;;;;;;5042460;28;20299;-95
2021/10/04 10:04:46;;;;;;;0.32;0.32;;;15.60;72.00;;;;;;5037116;28;20743;-95
2021/10/04 10:07:12;;;;;;;3.03;0.55;;;;;;;;;;5062040;28;20044;-95
2021/10/04 10:09:39;;;;;;;0.85;0.68;;;15.70;71.10;;;;;;5050076;28;20198;-95
2021/10/04 10:12:06;;;;;;;0.50;0.50;;;15.80;70.00;;;;;;5061078;28;20405;-95
2021/10/04 10:14:44;;;;;;;0.75;0.60;;;15.70;70.60;;;;;;5064081;28;20314;-95
2021/10/04 10:17:16;;;;;;;0.40;0.40;;;15.70;69.10;;;;;;5046448;28;20032;-95
2021/10/04 10:19:42;;;;;;;1.25;0.60;;;;;;;;;;5060794;28;20025;-95
2021/10/04 10:22:13;;;;;;;1.70;0.60;;;15.70;68.60;;;;;;5063819;28;20104;-95
2021/10/04 10:24:39;;;;;;;0.90;0.60;;;;;;;;;;5067996;28;20037;-94
2021/10/04 10:27:05;;;;;;;0.52;0.52;;;;;;;;;;5063214;28;20032;-95
2021/10/04 10:29:33;;;;;;;3.55;0.40;;;15.80;69.20;;;;;;5069450;28;20016;-95
2021/10/04 10:31:59;;;;;;;0.50;0.50;;;;;;;;;;5041255;28;20367;-95
2021/10/04 10:34:25;;;;;;;0.52;0.50;;;;;;;;;;5045553;28;20047;-95
2021/10/04 10:37:11;;;;;;;0.60;0.60;;;15.80;68.10;;;;;;5049070;28;20327;-95
2021/10/04 10:39:53;;;;;;;0.50;0.45;;;15.80;69.00;;;;;;5044370;28;20024;-95
2021/10/04 10:42:28;;;;;;;0.98;0.60;;;;;;;;;;5055839;28;20025;-95
2021/10/04 10:44:57;;;;;;;3.47;0.43;;;;;;;;;;5048096;28;20040;-95
2021/10/04 10:47:36;;;;;;;1.23;0.68;;;;;;;;;;5058673;28;20025;-94
2021/10/04 10:50:11;;;;;;;0.68;0.50;;;;;;;;;;5062673;28;20028;-96
2021/10/04 10:52:40;;;;;;;0.60;0.50;;;;;;;;;;5067875;28;20017;-96
2021/10/04 10:55:19;;;;;;;0.60;0.60;;;;;;;;;;5063735;28;20396;-95
2021/10/04 10:57:58;;;;;;;0.47;0.47;;;;;;;;;;5069240;28;20036;-95
2021/10/04 11:00:27;;;;;;;0.68;0.43;;;;;;;;;;5059166;28;20394;-95
2021/10/04 11:02:56;;;;;;;1.77;0.45;;;;;;;;;;5066390;28;20036;-95
2021/10/04 11:05:37;;;;;;;0.50;0.45;;;;;;;;;;5062691;28;20016;-95
2021/10/04 11:08:19;;;;;;;0.70;0.70;;;15.70;68.60;;;;;;5047426;28;20127;-95
2021/10/04 11:10:48;;;;;;;1.00;0.73;;;;;;;;;;5060567;28;20025;-95
2021/10/04 11:13:21;;;;;;;1.05;0.77;;;15.50;86.80;;;;;;5062882;28;20052;-95
2021/10/04 11:15:47;;;;;;;0.82;0.68;;;;;;;;;;5059311;28;20036;-95
2021/10/04 11:18:13;;;;;;;0.60;0.60;;;;;;;;;;5063172;28;20033;-95
2021/10/04 11:20:39;;;;;;;0.73;0.50;;;;;;;;;;5059139;28;20032;-95
2021/10/04 11:23:16;;;;;;;0.88;0.75;;;15.90;70.10;;;;;;5054809;28;20028;-95
2021/10/04 11:25:45;;;;;;;0.60;0.60;;;;;;;;;;5060794;28;20112;-94
2021/10/04 11:28:14;;;;;;;0.73;0.60;;;15.80;69.50;;;;;;5059923;28;20044;-95
2021/10/04 11:30:57;;;;;;;1.40;1.17;;;14.00;70.70;;;;;;5063936;28;20081;-95
2021/10/04 11:33:24;;;;;;;1.10;0.57;;;;;;;;;;5069937;28;20117;-96
2021/10/04 11:36:13;;;;;;;0.40;0.40;;;16.00;68.20;;;;;;5049906;28;20488;-95
2021/10/04 11:38:49;;;;;;;1.67;0.80;;;;;;;;;;5054265;28;20043;-93
2021/10/04 11:41:25;;;;;;;0.75;0.52;;;16.00;67.90;;;;;;5059010;28;20107;-94
2021/10/04 11:43:54;;;;;;;1.42;1.33;;;15.80;68.70;;;;;;5056460;28;20028;-94
2021/10/04 11:46:22;;;;;;;0.85;0.70;;;15.90;69.60;;;;;;5038832;28;20029;-95
2021/10/04 11:48:49;;;;;;;1.85;0.80;;;;;;;;;;5054771;28;20464;-93
2021/10/04 11:51:26;;;;;;;0.80;0.68;;;15.80;68.90;;;;;;5040302;28;20025;-95
2021/10/04 11:53:53;;;;;;;1.65;1.27;;;;;;;;;;5048143;28;20672;-94
2021/10/04 11:56:19;;;;;;;1.30;0.60;;;15.80;68.00;;;;;;5040079;28;20032;-94
2021/10/04 11:58:53;;;;;;;0.70;0.55;;;15.90;67.90;;;;;;5045000;28;20049;-94
2021/10/04 12:01:28;;;;;;;1.38;0.65;;;;;;;;;;5053375;28;20045;-92
2021/10/04 12:04:21;;;;;;;0.80;0.80;;;15.80;68.30;;;;;;5052864;28;20029;-94
2021/10/04 12:06:47;;;;;;;0.70;0.70;;;;;;;;;;5047506;28;20041;-94
2021/10/04 12:09:21;;;;;;;3.83;0.80;;;15.90;68.60;;;;;;5056797;28;20575;-94
2021/10/04 12:11:55;;;;;;;6.25;1.25;;;16.10;67.50;;;;;;5060345;28;20100;-92
2021/10/04 12:14:22;;;;;;;1.05;0.50;;;;;;;;;;5040045;28;20029;-94
2021/10/04 12:16:50;;;;;;;6.40;0.87;;;16.00;68.00;;;;;;5048704;28;20036;-94
2021/10/04 12:19:16;;;;;;;1.27;0.90;;;;;;;;;;5049011;28;20310;-95
2021/10/04 12:21:50;;;;;;;0.95;0.90;;;15.80;68.10;;;;;;5060592;28;20040;-93
2021/10/04 12:24:16;;;;;;;1.67;1.17;;;;;;;;;;5058683;28;20033;-94
2021/10/04 12:26:46;;;;;;;2.13;1.70;;;;;;;;;;5056223;28;20041;-95
2021/10/04 12:29:15;;;;;;;1.55;0.93;;;;;;;;;;5078205;28;20036;-95
2021/10/04 12:31:41;;;;;;;0.70;0.70;;;;;;;;;;5055731;28;20104;-95
2021/10/04 12:34:25;;;;;;;0.73;0.70;;;15.60;68.30;;;;;;5063676;28;20107;-96
2021/10/04 12:36:52;;;;;;;1.98;0.73;;;;;;;;;;5069192;28;20028;-96
2021/10/04 12:39:19;;;;;;;2.37;0.77;;;;;;;;;;5089128;28;20029;-96
2021/10/04 12:41:46;;;;;;;0.50;0.50;;;;;;;;;;5090760;28;20036;-96
2021/10/04 12:44:14;;;;;;;1.05;1.00;;;;;;;;;;5086898;28;20021;-95
2021/10/04 12:46:40;;;;;;;1.27;0.70;;;;;;;;;;5079934;28;20039;-95
2021/10/04 12:49:21;;;;;;;1.63;1.27;;;;;;;;;;5089938;28;20029;-95
2021/10/04 12:51:49;;;;;;;1.58;1.10;;;;;;;;;;5062647;28;20025;-96
2021/10/04 12:54:31;;;;;;;2.47;0.57;;;;;;;;;;5105575;22;20060;-95
2021/10/04 12:56:57;;;;;;;1.25;0.68;;;;;;;;;;5025041;28;20046;-93
2021/10/04 12:59:27;;;;;;;2.10;0.80;;;;;;;;;;4996397;28;20034;-92
2021/10/04 13:01:55;;;;;;;0.75;0.75;;;;;;;;;;5006456;28;20105;-96
2021/10/04 13:04:29;;;;;;;0.75;0.75;;;;;;;;;;4997709;28;20061;-95
2021/10/04 13:06:55;;;;;;;3.03;0.60;;;;;;;;;;5011627;28;20026;-96
2021/10/04 13:09:21;;;;;;;1.67;1.05;;;;;;;;;;4997114;28;20708;-92
2021/10/04 13:11:49;;;;;;;1.27;0.95;;;;;;;;;;5005944;28;20037;-94
2021/10/04 13:14:16;;;;;;;0.68;0.68;;;;;;;;;;5021918;28;20038;-95
2021/10/04 13:16:45;;;;;;;0.50;0.50;;;;;;;;;;5026343;28;20038;-96
2021/10/04 13:19:11;;;;;;;0.80;0.77;;;;;;;;;;5025767;28;20494;-95
2021/10/04 13:21:38;;;;;;;1.10;0.70;;;;;;;;;;5019187;28;20030;-91
2021/10/04 13:24:04;;;;;;;0.40;0.40;;;;;;;;;;5010810;28;20038;-95
2021/10/04 13:26:30;;;;;;;0.70;0.40;;;;;;;;;;5003430;28;20033;-93
2021/10/04 13:28:56;;;;;;;1.55;1.02;;;;;;;;;;5009062;28;20049;-95
2021/10/04 13:31:23;;;;;;;0.50;0.50;;;;;;;;;;5001471;28;20041;-93
2021/10/04 13:33:50;;;;;;;0.95;0.60;;;15.60;68.60;;;;;;5010336;28;20018;-93
2021/10/04 13:36:17;;;;;;;0.40;0.40;;;;;;;;;;4985487;28;20084;-93
2021/10/04 13:38:44;;;;;;;0.55;0.55;;;;;;;;;;4993857;28;20038;-92
2021/10/04 13:41:10;;;;;;;0.50;0.50;;;;;;;;;;5006079;28;20053;-93
2021/10/04 13:43:36;;;;;;;0.53;0.50;;;;;;;;;;4989282;28;20038;-93
2021/10/04 13:46:03;;;;;;;0.88;0.70;;;;;;;;;;5005430;28;20018;-92
2021/10/04 13:48:29;;;;;;;0.60;0.57;;;;;;;;;;5009446;28;20033;-92
2021/10/04 13:50:56;;;;;;;1.27;0.77;;;15.60;70.30;;;;;;5004678;28;20025;-93
2021/10/04 13:53:22;;;;;;;0.75;0.73;;;;;;;;;;4990328;28;20054;-93
2021/10/04 13:55:48;;;;;;;0.73;0.63;;;;;;;;;;4992083;28;20053;-91
2021/10/04 13:58:14;;;;;;;0.55;0.55;;;;;;;;;;5011619;28;20065;-92
2021/10/04 14:00:41;;;;;;;0.88;0.60;;;;;;;;;;5011598;28;20022;-92
2021/10/04 14:03:07;;;;;;;0.75;0.73;;;;;;;;;;4989145;28;20043;-94
2021/10/04 14:05:33;;;;;;;2.20;1.45;;;;;;;;;;4993015;28;20018;-92
2021/10/04 14:07:59;;;;;;;0.75;0.75;;;;;;;;;;5007219;28;20030;-92
2021/10/04 14:10:26;;;;;;;2.63;0.77;;;15.50;70.20;;;;;;5009783;28;20034;-92
2021/10/04 14:12:52;;;;;;;2.95;0.93;;;15.40;70.90;;;;;;4987471;28;20064;-92
2021/10/04 14:15:18;;;;;;;1.25;1.15;;;;;;;;;;4993534;28;20062;-93
2021/10/04 14:17:44;;;;;;;0.55;0.55;;;;;;;;;;5001163;28;20045;-93
2021/10/04 14:20:13;;;;;;;0.68;0.68;;;15.30;73.90;;;;;;5026891;28;20022;-96
2021/10/04 14:22:45;;;;;;;1.80;0.90;;;;;;;;;;5016419;28;20053;-94
2021/10/04 14:25:10;;;;;;;0.98;0.80;;;;;;;;;;4989886;28;20060;-94
2021/10/04 14:27:37;;;;;;;0.82;0.70;;;;;;;;;;5007926;28;20031;-94
2021/10/04 14:30:03;;;;;;;0.60;0.50;;;;;;;;;;5027649;28;20049;-93
2021/10/04 14:32:29;;;;;;;1.10;0.68;;;;;;;;;;5001203;28;20054;-94
2021/10/04 14:34:55;;;;;;;1.20;0.98;;;;;;;;;;5010587;28;20413;-94
2021/10/04 14:37:21;;;;;;;1.58;1.30;;;;;;;;;;5017856;28;20037;-94
2021/10/04 14:39:47;;;;;;;1.65;0.93;;;;;;;;;;5014828;28;20089;-95
2021/10/04 14:42:13;;;;;;;1.38;0.75;;;;;;;;;;5015715;28;20046;-94
2021/10/04 14:44:39;;;;;;;3.20;0.68;;;;;;;;;;5004925;28;20026;-95
2021/10/04 14:47:05;;;;;;;3.15;0.88;;;;;;;;;;5008086;28;20029;-93
2021/10/04 14:49:31;;;;;;;1.30;0.75;;;;;;;;;;5012975;28;20034;-93
2021/10/04 14:51:57;;;;;;;0.77;0.70;;;;;;;;;;4990720;28;21029;-92
2021/10/04 14:54:23;;;;;;;2.15;0.82;;;;;;;;;;5016875;28;20486;-93
2021/10/04 14:56:49;;;;;;;2.90;0.80;;;;;;;;;;4994395;28;20029;-92
2021/10/04 14:59:16;;;;;;;1.45;1.13;;;;;;;;;;5014461;28;20034;-93
2021/10/04 15:01:42;;;;;;;0.80;0.57;;;;;;;;;;5018732;28;20117;-92
2021/10/04 15:04:08;;;;;;;2.15;0.90;;;;;;;;;;4999291;28;20172;-92